Time;durP1;ratioP1;P1;durP2;ratioP2;P2;SDS_P1;SDS_P2;PMS_P1;PMS_P2;Temp;Humidity;BMP_temperature;BMP_pressure;BME280_temperature;BME280_humidity;BME280_pressure;Samples;Min_cycle;Max_cycle;Signal;HPM_P1;HPM_P2
2021/11/30 00:01:09;;;;;;;12.10;6.85;;;;;;;2.48;94.21;97606.19;1689054;84;21566;-79
2021/11/30 00:03:37;;;;;;;11.95;6.53;;;;;;;2.52;93.20;97624.63;1688542;84;21069;-77
2021/11/30 00:06:05;;;;;;;11.35;4.65;;;;;;;2.52;93.20;97624.63;1660610;85;21981;-76
2021/11/30 00:08:33;;;;;;;11.12;6.20;;;;;;;2.52;93.19;97631.13;1661313;86;21073;-76
2021/11/30 00:11:01;;;;;;;12.10;7.28;;;;;;;2.52;92.47;97631.97;1661275;84;21069;-75
2021/11/30 00:13:30;;;;;;;13.83;7.28;;;;;;;2.52;93.76;97631.13;1660946;86;21155;-76
2021/11/30 00:15:56;;;;;;;12.05;7.30;;;;;;;2.52;96.05;97632.42;1660661;86;21209;-76
2021/11/30 00:18:25;;;;;;;11.10;6.70;;;;;;;2.60;96.17;97643.77;1660771;86;21098;-78
2021/11/30 00:20:52;;;;;;;11.43;7.00;;;;;;;2.60;96.17;97643.77;1660949;86;21072;-77
2021/11/30 00:23:19;;;;;;;11.78;6.78;;;;;;;2.61;94.14;97647.61;1661038;86;21120;-77
2021/11/30 00:25:46;;;;;;;10.10;6.45;;;;;;;2.67;96.90;97647.81;1661017;86;21100;-75
2021/11/30 00:28:13;;;;;;;13.43;7.15;;;;;;;2.67;96.90;97647.81;1660993;86;21128;-75
2021/11/30 00:30:41;;;;;;;10.63;6.47;;;;;;;2.65;94.42;97660.02;1669516;85;21623;-77
2021/11/30 00:33:08;;;;;;;11.45;7.03;;;;;;;2.68;98.93;97655.52;1669655;85;21355;-77
2021/11/30 00:35:35;;;;;;;11.12;6.00;;;;;;;2.71;95.58;97658.00;1669696;85;21036;-77
2021/11/30 00:38:04;;;;;;;12.07;6.78;;;;;;;2.67;95.52;97673.80;1669424;85;21116;-76
2021/11/30 00:40:33;;;;;;;12.10;6.62;;;;;;;2.67;95.52;97673.80;1669308;85;21115;-76
2021/11/30 00:43:00;;;;;;;12.93;7.15;;;;;;;2.62;93.93;97672.70;1709236;83;21217;-77
2021/11/30 00:45:36;;;;;;;13.00;7.53;;;;;;;2.64;94.82;97673.91;1738364;82;21576;-77
2021/11/30 00:47:58;;;;;;;14.43;8.00;;;;;;;2.63;95.25;97663.14;1738486;82;21093;-76
2021/11/30 00:50:28;;;;;;;11.65;6.78;;;;;;;2.63;94.99;97678.27;1726704;82;21117;-77
2021/11/30 00:52:55;;;;;;;11.90;7.12;;;;;;;2.67;96.65;97676.39;1709506;83;21105;-77
2021/11/30 00:55:22;;;;;;;13.22;7.35;;;;;;;2.66;95.38;97680.72;1709117;83;21216;-77
2021/11/30 00:57:49;;;;;;;13.58;6.47;;;;;;;2.68;94.66;97667.21;1709246;83;20998;-79
2021/11/30 01:00:18;;;;;;;11.15;6.92;;;;;;;2.67;94.43;97673.80;1711999;82;21072;-78
2021/11/30 01:02:46;;;;;;;12.47;6.87;;;;;;;2.62;95.46;97674.00;1738711;82;21126;-77
2021/11/30 01:05:14;;;;;;;11.93;6.78;;;;;;;2.64;94.59;97677.34;1738754;82;21045;-79
2021/11/30 01:07:40;;;;;;;10.20;6.22;;;;;;;2.61;93.34;97677.49;1738791;82;21076;-79
2021/11/30 01:10:12;;;;;;;10.48;5.97;;;;;;;2.61;93.34;97677.49;1738839;82;21085;-79
2021/11/30 01:12:39;;;;;;;11.48;6.92;;;;;;;2.60;94.01;97683.61;1738984;82;21202;-80
2021/11/30 01:15:10;;;;;;;13.08;6.35;;;;;;;2.62;93.70;97683.52;1724543;82;21029;-76
2021/11/30 01:17:36;;;;;;;;;;;;;;;2.64;94.81;97685.14;1711794;83;21041;-79
2021/11/30 01:20:08;;;;;;;11.65;6.45;;;;;;;2.65;95.56;97686.84;1709090;83;21144;-76
2021/11/30 01:22:34;;;;;;;8.13;5.20;;;;;;;2.64;93.79;97691.64;1709193;83;21061;-74
2021/11/30 01:25:01;;;;;;;9.75;6.62;;;;;;;2.65;95.68;97693.34;1695649;83;21002;-75
2021/11/30 01:27:28;;;;;;;8.30;5.45;;;;;;;2.63;94.75;97693.86;1694238;84;21559;-75
2021/11/30 01:29:56;;;;;;;9.85;5.58;;;;;;;2.62;93.42;97696.09;1699232;84;21550;-74
2021/11/30 01:32:22;;;;;;;9.80;5.90;;;;;;;2.62;93.15;97688.72;1718376;83;21953;-74
2021/11/30 01:34:49;;;;;;;7.85;5.47;;;;;;;2.62;93.15;97688.72;1718358;83;21082;-74
2021/11/30 01:37:16;;;;;;;10.38;5.53;;;;;;;2.65;95.56;97688.14;1718570;83;21123;-75
2021/11/30 01:39:46;;;;;;;7.90;4.45;;;;;;;2.63;95.69;97678.27;1718078;83;21943;-75
2021/11/30 01:42:14;;;;;;;8.38;4.80;;;;;;;2.68;92.90;97681.97;1744624;81;21052;-76
2021/11/30 01:44:57;;;;;;;9.30;4.95;;;;;;;2.68;93.69;97686.70;1758479;81;21038;-81
2021/11/30 01:49:51;;;;;;;8.45;5.37;;;;;;;2.65;92.58;97701.60;1758830;80;21508;-80
2021/11/30 01:52:19;;;;;;;8.63;5.20;;;;;;;2.67;94.25;97700.63;1758917;81;21025;-81
2021/11/30 02:54:16;;;;;;;7.90;5.25;;;;;;;2.50;95.02;97730.37;1683958;84;20939;-79
2021/11/30 02:56:48;;;;;;;8.18;3.80;;;;;;;2.47;97.25;97737.02;1658169;85;21089;-78
2021/11/30 03:03:59;;;;;;;6.80;4.12;;;;;;;2.54;94.70;97735.84;1679047;85;21193;-75
2021/11/30 03:10:44;;;;;;;5.50;3.55;;;;;;;2.55;95.44;97741.41;1601291;88;21731;-80
2021/11/30 03:13:11;;;;;;;8.78;5.00;;;;;;;2.50;96.24;97743.37;1600771;89;21026;-80
2021/11/30 03:15:38;;;;;;;9.23;4.78;;;;;;;2.47;95.77;97755.20;1608331;88;21436;-80
2021/11/30 03:29:40;;;;;;;7.78;4.53;;;;;;;2.48;97.04;97728.30;1616548;87;21556;-80
2021/11/30 03:33:58;;;;;;;11.33;5.85;;;;;;;2.50;95.28;97758.49;1628400;87;21076;-82
2021/11/30 03:34:39;;;;;;;5.72;3.30;;;;;;;2.49;93.02;97744.29;1631626;87;21544;-81
2021/11/30 03:37:07;;;;;;;7.83;5.28;;;;;;;2.46;93.34;97734.88;1631616;87;21097;-78
2021/11/30 03:39:35;;;;;;;9.08;5.35;;;;;;;2.46;93.34;97734.88;1631445;86;21214;-79
2021/11/30 03:42:02;;;;;;;7.72;5.37;;;;;;;2.53;95.38;97730.23;1638270;87;21049;-78
2021/11/30 03:44:30;;;;;;;8.75;5.20;;;;;;;2.50;92.52;97747.27;1638335;87;21622;-78
2021/11/30 03:46:57;;;;;;;9.55;5.10;;;;;;;2.49;92.34;97751.63;1614763;87;21124;-78
2021/11/30 03:49:23;;;;;;;9.30;5.90;;;;;;;2.47;93.31;97770.32;1647752;87;21122;-77
2021/11/30 03:51:50;;;;;;;10.35;6.10;;;;;;;2.47;93.31;97770.32;1647532;87;21499;-78
2021/11/30 03:54:18;;;;;;;9.20;5.67;;;;;;;2.47;91.99;97760.39;1647797;87;21578;-77
2021/11/30 03:56:47;;;;;;;8.88;5.50;;;;;;;2.47;93.91;97766.42;1647647;87;21012;-78
2021/11/30 03:59:14;;;;;;;8.50;5.85;;;;;;;2.47;92.63;97765.59;1647725;87;21140;-77
2021/11/30 04:03:30;;;;;;;10.70;6.07;;;;;;;2.54;93.27;97765.72;1782311;79;22663;-77
2021/11/30 04:05:56;;;;;;;9.73;6.53;;;;;;;2.53;94.04;97765.30;1750238;81;21687;-77
2021/11/30 04:08:23;;;;;;;10.10;6.75;;;;;;;2.57;96.33;97771.23;1728813;82;21121;-80
2021/11/30 04:10:49;;;;;;;11.40;6.50;;;;;;;2.53;93.15;97771.80;1678808;85;21538;-80
2021/11/30 04:13:16;;;;;;;14.60;7.42;;;;;;;2.53;94.40;97784.80;1679031;85;21137;-79
2021/11/30 04:15:43;;;;;;;14.28;7.55;;;;;;;2.50;94.61;97778.44;1679201;85;21113;-78
2021/11/30 04:18:09;;;;;;;10.10;5.70;;;;;;;2.56;94.22;97795.08;1678747;85;20973;-79
2021/11/30 04:20:38;;;;;;;9.25;6.10;;;;;;;2.55;92.97;97805.52;1678527;85;21158;-79
2021/11/30 04:23:04;;;;;;;10.50;5.95;;;;;;;2.55;92.97;97805.52;1678753;85;21111;-79
2021/11/30 04:25:32;;;;;;;9.95;6.25;;;;;;;2.54;93.27;97818.14;1678569;85;21116;-79
2021/11/30 04:27:59;;;;;;;11.18;6.80;;;;;;;2.51;95.10;97814.76;1678859;85;21607;-79
2021/11/30 04:30:25;;;;;;;9.93;5.95;;;;;;;2.51;92.51;97819.12;1678555;85;22217;-78
2021/11/30 04:32:54;;;;;;;11.10;6.17;;;;;;;2.52;95.01;97821.63;1679152;85;21630;-83
2021/11/30 04:35:21;;;;;;;9.65;5.62;;;;;;;2.49;92.75;97835.22;1678726;85;21108;-84
2021/11/30 04:37:48;;;;;;;10.08;5.60;;;;;;;2.50;92.55;97827.34;1679018;85;21071;-78
2021/11/30 04:40:15;;;;;;;10.23;6.22;;;;;;;2.49;93.52;97836.52;1678667;84;21127;-78
2021/11/30 04:42:43;;;;;;;7.35;5.00;;;;;;;2.48;93.18;97837.41;1678527;84;21168;-78
2021/11/30 04:45:15;;;;;;;8.70;5.92;;;;;;;2.48;93.18;97837.41;1678686;85;21161;-77
2021/11/30 04:47:41;;;;;;;10.60;5.67;;;;;;;2.46;93.13;97836.63;1678733;85;21050;-75
2021/11/30 04:50:23;;;;;;;9.43;5.90;;;;;;;2.48;92.86;97836.11;1682944;85;21053;-70
2021/11/30 04:52:41;;;;;;;10.32;5.45;;;;;;;2.46;92.06;97827.53;1679153;85;21129;-70
2021/11/30 04:55:08;;;;;;;9.08;5.58;;;;;;;2.46;92.06;97827.53;1684919;85;21073;-68
2021/11/30 04:57:35;;;;;;;10.05;6.12;;;;;;;2.52;92.87;97843.72;1684056;83;21176;-68
2021/11/30 05:00:04;;;;;;;8.48;5.20;;;;;;;2.49;91.84;97852.11;1684011;85;21062;-69
2021/11/30 05:02:30;;;;;;;9.73;5.12;;;;;;;2.49;91.84;97852.11;1678563;84;21580;-69
2021/11/30 05:04:57;;;;;;;8.93;5.80;;;;;;;2.46;91.78;97848.31;1677943;85;21085;-69
2021/11/30 05:07:24;;;;;;;9.13;4.95;;;;;;;2.44;92.83;97846.23;1711723;82;21657;-69
2021/11/30 05:09:51;;;;;;;12.60;5.92;;;;;;;2.45;92.91;97859.63;1677605;85;21132;-71
2021/11/30 05:12:18;;;;;;;10.85;6.35;;;;;;;2.43;94.60;97858.38;1677627;85;21068;-68
2021/11/30 05:14:46;;;;;;;13.35;7.12;;;;;;;2.42;92.85;97872.75;1677726;85;21061;-69
2021/11/30 05:17:13;;;;;;;8.93;6.22;;;;;;;2.44;95.74;97877.41;1712305;83;21555;-69
2021/11/30 05:19:40;;;;;;;9.05;6.08;;;;;;;2.42;94.05;97864.50;1712471;82;21066;-71
2021/11/30 05:22:11;;;;;;;10.05;5.92;;;;;;;2.41;92.52;97873.18;1677692;85;21214;-70
2021/11/30 05:24:37;;;;;;;8.25;3.75;;;;;;;2.36;91.87;97876.88;1712355;83;21070;-70
2021/11/30 05:27:04;;;;;;;11.15;5.83;;;;;;;2.36;91.87;97876.88;1677876;85;21121;-69
2021/11/30 05:29:32;;;;;;;8.53;5.42;;;;;;;2.39;92.55;97880.64;1677746;85;21021;-71
2021/11/30 05:31:58;;;;;;;8.03;4.85;;;;;;;2.37;93.85;97905.41;1677790;85;21116;-70
2021/11/30 05:34:25;;;;;;;7.37;4.80;;;;;;;2.37;91.18;97903.23;1712569;83;22467;-71
2021/11/30 05:36:52;;;;;;;8.38;5.00;;;;;;;2.37;93.84;97900.64;1711086;82;21532;-69
2021/11/30 05:39:21;;;;;;;8.95;5.00;;;;;;;2.39;90.39;97898.83;1676378;85;21049;-69
2021/11/30 05:41:47;;;;;;;9.85;6.20;;;;;;;2.40;92.30;97917.42;1710088;83;21576;-68
2021/11/30 05:44:14;;;;;;;9.43;5.53;;;;;;;2.40;92.30;97917.42;1711333;82;21097;-70
2021/11/30 05:46:41;;;;;;;12.25;5.12;;;;;;;2.41;92.46;97930.33;1680851;84;21140;-69
2021/11/30 05:49:08;;;;;;;10.03;4.83;;;;;;;2.46;90.21;97932.75;1712310;83;21042;-69
2021/11/30 05:51:34;;;;;;;7.08;4.78;;;;;;;2.46;90.21;97932.75;1711928;83;21062;-70
2021/11/30 05:54:01;;;;;;;8.05;4.80;;;;;;;2.48;89.62;97942.63;1677929;85;21070;-69
2021/11/30 05:56:28;;;;;;;7.78;4.90;;;;;;;2.46;89.88;97952.23;1711875;83;21085;-69
2021/11/30 05:58:56;;;;;;;7.85;5.10;;;;;;;2.45;88.87;97941.46;1676361;84;21143;-69
2021/11/30 06:01:28;;;;;;;10.43;5.55;;;;;;;2.48;90.15;97968.61;1689340;83;21165;-70
2021/11/30 06:06:19;;;;;;;6.92;4.17;;;;;;;2.45;88.77;97960.95;1712164;82;21101;-71
2021/11/30 06:08:46;;;;;;;7.42;4.40;;;;;;;2.46;89.89;97971.72;1677779;85;21136;-71
2021/11/30 06:11:12;;;;;;;8.33;4.45;;;;;;;2.45;88.41;97979.13;1677370;85;21167;-70
2021/11/30 06:13:39;;;;;;;6.42;4.10;;;;;;;2.52;90.70;97981.88;1710158;83;21656;-70
2021/11/30 06:16:06;;;;;;;5.20;3.02;;;;;;;2.51;88.25;97989.30;1676664;85;21116;-70
2021/11/30 06:18:33;;;;;;;11.33;3.55;;;;;;;2.48;85.89;97994.59;1712084;83;21058;-69
2021/11/30 06:21:00;;;;;;;5.25;3.40;;;;;;;2.48;87.77;98001.09;1702473;82;21108;-69
2021/11/30 06:23:27;;;;;;;4.33;2.60;;;;;;;2.47;86.31;98007.20;1704521;82;21627;-69
2021/11/30 06:25:53;;;;;;;8.48;3.00;;;;;;;2.47;85.53;98015.84;1677838;85;21564;-69
2021/11/30 06:28:20;;;;;;;3.08;2.08;;;;;;;2.45;86.73;98016.34;1715845;83;21072;-70
2021/11/30 06:30:47;;;;;;;3.62;2.40;;;;;;;2.38;81.14;98015.34;1682840;85;21085;-70
2021/11/30 06:33:14;;;;;;;6.15;2.52;;;;;;;2.37;84.34;98016.23;1682775;85;21061;-71
2021/11/30 06:35:41;;;;;;;7.92;2.05;;;;;;;2.38;81.07;98016.64;1682541;85;21112;-70
2021/11/30 06:38:08;;;;;;;3.50;2.10;;;;;;;2.38;81.07;98016.64;1669832;85;21373;-70
2021/11/30 06:40:34;;;;;;;2.33;1.90;;;;;;;2.35;84.29;98025.41;1702147;83;21030;-70
2021/11/30 06:43:01;;;;;;;3.22;1.90;;;;;;;2.35;79.96;98028.42;1707609;82;21051;-71
2021/11/30 06:45:28;;;;;;;2.87;2.10;;;;;;;2.35;79.96;98028.42;1710935;83;21070;-70
2021/11/30 06:47:55;;;;;;;3.47;2.80;;;;;;;2.33;80.24;98035.00;1677904;84;21488;-69
2021/11/30 06:50:22;;;;;;;4.62;2.12;;;;;;;2.28;81.27;98026.08;1679794;84;21065;-69
2021/11/30 06:52:50;;;;;;;4.90;1.92;;;;;;;2.28;81.27;98026.08;1673761;84;21099;-70
2021/11/30 06:55:18;;;;;;;3.77;1.80;;;;;;;2.24;77.77;98029.69;1712389;82;21100;-69
2021/11/30 06:57:45;;;;;;;4.28;1.98;;;;;;;2.24;77.77;98029.69;1711048;82;21182;-70
2021/11/30 07:00:13;;;;;;;5.45;2.10;;;;;;;2.23;80.54;98024.11;1712102;82;21061;-69
2021/11/30 07:02:42;;;;;;;2.65;1.57;;;;;;;2.24;78.46;98036.18;1678986;84;21084;-71
2021/11/30 07:05:17;;;;;;;4.95;1.90;;;;;;;2.26;79.01;98045.23;1684765;84;21083;-70
2021/11/30 07:13:13;;;;;;;4.58;2.22;;;;;;;2.27;79.00;98039.95;1719525;83;21227;-69
2021/11/30 07:15:32;;;;;;;2.22;1.90;;;;;;;2.27;79.00;98039.95;1718430;83;21021;-70
2021/11/30 07:18:00;;;;;;;3.62;1.60;;;;;;;2.24;78.17;98032.28;1718852;83;21065;-71
2021/11/30 07:20:27;;;;;;;2.58;1.95;;;;;;;2.23;77.58;98053.98;1693961;84;21074;-70
2021/11/30 07:22:57;;;;;;;3.75;1.80;;;;;;;2.27;78.68;98046.91;1719294;83;21049;-70
2021/11/30 07:25:25;;;;;;;3.37;1.70;;;;;;;2.27;78.68;98046.91;1719382;83;21160;-70
2021/11/30 07:27:53;;;;;;;4.17;1.77;;;;;;;2.27;80.20;98039.95;1706284;83;21089;-70
2021/11/30 07:30:20;;;;;;;2.45;1.75;;;;;;;2.28;76.28;98045.56;1688680;83;21024;-70
2021/11/30 07:32:47;;;;;;;5.58;2.08;;;;;;;2.35;81.72;98037.09;1718605;81;21065;-70
2021/11/30 07:35:14;;;;;;;2.87;2.00;;;;;;;2.39;76.34;98049.03;1683278;84;21150;-70
2021/11/30 07:37:41;;;;;;;1.82;1.20;;;;;;;2.42;75.53;98041.61;1685881;83;21139;-71
2021/11/30 07:40:10;;;;;;;5.58;1.82;;;;;;;2.51;74.36;98060.75;1717009;82;21028;-71
2021/11/30 07:42:37;;;;;;;6.25;2.35;;;;;;;2.51;74.36;98060.75;1683877;83;21138;-72
2021/11/30 07:45:06;;;;;;;3.33;1.67;;;;;;;2.56;77.44;98046.28;1685098;85;21587;-71
2021/11/30 07:47:33;;;;;;;3.15;1.82;;;;;;;2.58;75.43;98054.41;1677936;83;21057;-71
2021/11/30 07:50:00;;;;;;;4.08;1.90;;;;;;;2.58;73.64;98054.41;1677417;83;21953;-71
2021/11/30 07:52:26;;;;;;;7.08;2.12;;;;;;;2.53;75.33;98047.22;1719337;82;21060;-69
2021/11/30 07:54:53;;;;;;;2.95;1.80;;;;;;;2.60;75.65;98068.62;1718305;83;21097;-72
2021/11/30 07:57:21;;;;;;;3.85;2.00;;;;;;;2.60;75.65;98068.62;1719015;82;21786;-71
2021/11/30 07:59:48;;;;;;;2.83;1.87;;;;;;;2.62;78.51;98067.69;1711477;83;21643;-71
2021/11/30 08:02:15;;;;;;;2.27;1.80;;;;;;;2.66;73.96;98074.44;1710819;83;21112;-70
2021/11/30 08:04:42;;;;;;;3.98;2.00;;;;;;;2.70;75.82;98079.92;1710032;83;21086;-70
2021/11/30 08:07:08;;;;;;;3.83;2.30;;;;;;;2.69;72.72;98083.45;1669896;84;21064;-70
2021/11/30 08:09:36;;;;;;;5.17;1.75;;;;;;;2.72;73.46;98074.68;1711597;83;21053;-71
2021/11/30 08:12:04;;;;;;;2.70;1.57;;;;;;;2.73;75.88;98064.20;1661429;85;21120;-70
2021/11/30 08:14:31;;;;;;;2.12;1.60;;;;;;;2.76;71.37;98072.80;1678441;85;21727;-70
2021/11/30 08:16:58;;;;;;;4.25;1.98;;;;;;;2.76;75.55;98076.69;1700256;83;21568;-70
2021/11/30 08:19:24;;;;;;;2.80;1.35;;;;;;;2.77;72.56;98082.30;1669262;85;21066;-70
2021/11/30 08:21:51;;;;;;;3.05;2.17;;;;;;;2.76;72.23;98080.59;1711532;83;21077;-70
2021/11/30 08:24:20;;;;;;;4.10;1.85;;;;;;;2.76;76.58;98082.77;1659943;85;21107;-70
2021/11/30 08:26:47;;;;;;;3.08;2.10;;;;;;;2.78;72.25;98083.52;1710837;83;21492;-69
2021/11/30 08:29:14;;;;;;;3.05;1.95;;;;;;;2.83;74.48;98075.13;1710725;83;21668;-70
2021/11/30 08:31:42;;;;;;;3.67;2.08;;;;;;;2.84;75.38;98091.09;1701641;83;21663;-70
2021/11/30 08:34:09;;;;;;;2.55;1.82;;;;;;;2.94;72.90;98079.89;1674089;85;21014;-69
2021/11/30 08:36:37;;;;;;;6.10;2.05;;;;;;;3.00;75.06;98082.25;1672724;85;21069;-70
2021/11/30 08:39:05;;;;;;;3.10;2.00;;;;;;;2.96;70.60;98074.17;1674869;84;21210;-70
2021/11/30 08:41:32;;;;;;;3.37;1.90;;;;;;;3.06;73.76;98087.23;1708404;82;21062;-70
2021/11/30 08:43:59;;;;;;;5.40;2.30;;;;;;;3.02;73.46;98077.84;1708416;83;21109;-70
2021/11/30 08:46:26;;;;;;;4.17;2.20;;;;;;;3.00;71.06;98078.36;1704067;83;21489;-70
2021/11/30 08:48:52;;;;;;;3.90;2.15;;;;;;;3.02;79.87;98073.95;1679838;84;21536;-69
2021/11/30 08:51:20;;;;;;;2.85;2.02;;;;;;;3.04;73.38;98090.34;1675125;84;21198;-70
2021/11/30 08:53:46;;;;;;;4.17;2.55;;;;;;;3.02;72.24;98080.45;1677603;85;21046;-70
2021/11/30 08:56:14;;;;;;;5.55;2.67;;;;;;;2.95;77.35;98072.50;1675445;84;21069;-69
2021/11/30 08:58:40;;;;;;;5.92;2.90;;;;;;;2.92;73.18;98086.47;1711885;83;21128;-70
2021/11/30 09:01:07;;;;;;;6.03;2.75;;;;;;;2.92;75.11;98095.99;1709695;83;21086;-70
2021/11/30 09:03:35;;;;;;;9.70;3.20;;;;;;;2.88;74.77;98087.94;1711882;83;21104;-69
2021/11/30 09:06:02;;;;;;;8.10;3.77;;;;;;;2.84;73.99;98082.00;1709807;82;21027;-71
2021/11/30 09:08:31;;;;;;;11.48;4.85;;;;;;;2.81;75.29;98079.98;1727401;82;21081;-70
2021/11/30 09:10:58;;;;;;;8.95;4.22;;;;;;;2.76;73.97;98077.56;1720598;82;21507;-71
2021/11/30 09:13:25;;;;;;;8.13;3.80;;;;;;;2.78;75.76;98065.78;1711782;82;21010;-69
2021/11/30 09:15:54;;;;;;;7.65;3.40;;;;;;;2.79;75.83;98083.09;1673348;85;21074;-70
2021/11/30 09:18:20;;;;;;;5.35;2.70;;;;;;;2.79;73.82;98082.63;1670731;85;21773;-71
2021/11/30 09:20:48;;;;;;;5.60;2.77;;;;;;;2.73;73.94;98074.60;1687181;83;21025;-69
2021/11/30 09:23:14;;;;;;;5.35;3.00;;;;;;;2.73;73.08;98059.00;1668031;83;21144;-70
2021/11/30 09:25:41;;;;;;;7.42;3.22;;;;;;;2.76;72.74;98065.00;1671897;84;21069;-69
2021/11/30 09:28:08;;;;;;;6.33;3.40;;;;;;;2.70;74.01;98079.92;1707353;84;21130;-70
2021/11/30 09:30:36;;;;;;;4.60;2.60;;;;;;;2.73;73.05;98065.50;1709400;83;21483;-70
2021/11/30 09:33:03;;;;;;;4.85;3.08;;;;;;;2.72;73.86;98056.03;1711518;83;21577;-70
2021/11/30 09:35:30;;;;;;;4.30;2.85;;;;;;;2.71;72.81;98066.05;1669143;85;21060;-70
2021/11/30 09:37:57;;;;;;;3.50;2.72;;;;;;;2.70;72.71;98053.94;1650811;85;21071;-70
2021/11/30 09:40:27;;;;;;;4.70;2.50;;;;;;;2.74;75.85;98059.88;1694734;83;21160;-70
2021/11/30 09:42:54;;;;;;;7.00;3.25;;;;;;;2.73;72.67;98060.77;1670720;85;21091;-70
2021/11/30 09:45:25;;;;;;;7.35;4.08;;;;;;;2.73;74.35;98061.61;1710264;83;21147;-70
2021/11/30 09:47:49;;;;;;;6.87;3.95;;;;;;;2.71;76.14;98055.65;1711198;82;21085;-69
2021/11/30 09:50:19;;;;;;;5.92;3.75;;;;;;;2.71;75.63;98056.95;1709607;83;21078;-69
2021/11/30 09:52:47;;;;;;;5.55;3.60;;;;;;;2.68;76.66;98067.44;1712467;82;21796;-70
2021/11/30 09:55:16;;;;;;;7.67;3.85;;;;;;;2.67;75.48;98061.02;1673788;85;21105;-71
2021/11/30 09:57:43;;;;;;;6.83;3.72;;;;;;;2.68;79.68;98047.95;1682722;85;21045;-71
2021/11/30 10:00:11;;;;;;;6.65;3.67;;;;;;;2.71;80.35;98047.85;1660722;84;21237;-70
2021/11/30 10:02:38;;;;;;;5.67;3.55;;;;;;;2.77;76.58;98042.02;1653003;85;21977;-71
2021/11/30 10:05:07;;;;;;;5.22;3.12;;;;;;;2.80;79.79;98043.19;1679543;83;21982;-70
2021/11/30 10:07:50;;;;;;;5.62;3.27;;;;;;;2.83;74.97;98037.86;1676976;85;21053;-69
2021/11/30 10:10:20;;;;;;;5.33;3.30;;;;;;;2.81;73.52;98034.50;1708691;83;21073;-71
2021/11/30 10:13:04;;;;;;;8.08;3.70;;;;;;;2.80;81.24;98037.98;1641609;86;22254;-70
2021/11/30 10:15:49;;;;;;;11.38;3.55;;;;;;;2.80;74.47;98027.59;1706889;83;21104;-69
2021/11/30 10:18:30;;;;;;;6.60;3.45;;;;;;;2.83;73.82;98027.45;1692706;82;21046;-71
2021/11/30 10:21:20;;;;;;;5.67;3.15;;;;;;;2.81;75.51;98031.90;1701578;83;21049;-70
2021/11/30 10:24:01;;;;;;;5.92;3.15;;;;;;;2.76;74.04;98039.00;1705746;82;21068;-69
2021/11/30 10:26:36;;;;;;;6.35;3.40;;;;;;;2.79;74.14;98049.30;1708780;83;21054;-68
2021/11/30 10:29:07;;;;;;;7.40;3.83;;;;;;;2.77;77.69;98049.35;1709802;82;21113;-68
2021/11/30 10:31:41;;;;;;;5.85;3.55;;;;;;;2.75;76.97;98052.45;1706526;82;21151;-69
2021/11/30 10:34:29;;;;;;;7.85;3.58;;;;;;;2.71;73.93;98062.14;1709081;83;21128;-66
2021/11/30 10:37:03;;;;;;;8.85;4.15;;;;;;;2.68;74.24;98060.10;1702636;82;21125;-68
2021/11/30 10:39:33;;;;;;;7.15;3.60;;;;;;;2.62;74.18;98079.39;1675066;84;21030;-68
2021/11/30 10:42:25;;;;;;;7.78;3.33;;;;;;;2.57;74.43;98073.95;1676081;85;21080;-68
2021/11/30 10:45:12;;;;;;;7.47;3.22;;;;;;;2.56;75.00;98071.81;1615030;87;21544;-69
2021/11/30 10:47:38;;;;;;;6.35;3.40;;;;;;;2.54;73.58;98086.61;1613858;86;21087;-67
2021/11/30 10:50:11;;;;;;;10.05;4.78;;;;;;;2.52;74.16;98096.20;1620785;86;21150;-68
2021/11/30 10:52:41;;;;;;;6.83;3.58;;;;;;;2.55;79.84;98089.59;1655929;85;22250;-67
2021/11/30 10:55:16;;;;;;;4.67;3.17;;;;;;;2.62;76.49;98089.78;1662830;85;21146;-68
2021/11/30 10:57:46;;;;;;;10.00;5.03;;;;;;;2.70;77.72;98083.83;1659915;85;21098;-69
2021/11/30 11:00:26;;;;;;;7.15;3.87;;;;;;;2.72;87.06;98085.08;1667507;85;21084;-68
2021/11/30 11:03:04;;;;;;;9.48;3.40;;;;;;;2.83;76.49;98091.14;1656853;85;21101;-68
2021/11/30 11:05:38;;;;;;;8.93;4.42;;;;;;;2.88;79.40;98091.38;1681726;83;21049;-69
2021/11/30 11:08:17;;;;;;;8.00;3.90;;;;;;;2.85;81.51;98082.41;1695314;83;21683;-68
2021/11/30 11:10:49;;;;;;;10.40;4.87;;;;;;;2.90;76.41;98086.13;1695160;83;21121;-69
2021/11/30 11:13:20;;;;;;;9.23;3.85;;;;;;;2.91;80.99;98082.61;1675975;84;21087;-69
2021/11/30 11:15:47;;;;;;;7.28;3.30;;;;;;;2.91;78.87;98083.45;1681322;84;21074;-69
2021/11/30 11:18:33;;;;;;;9.15;4.62;;;;;;;2.83;75.19;98078.15;1697810;83;21103;-70
2021/11/30 11:21:30;;;;;;;7.37;3.15;;;;;;;2.79;82.13;98085.70;1687669;83;21339;-69
2021/11/30 11:24:04;;;;;;;7.47;3.20;;;;;;;2.76;77.06;98090.98;1691441;83;21257;-70
2021/11/30 11:26:47;;;;;;;7.95;3.87;;;;;;;2.74;77.11;98089.77;1703080;83;21579;-70
2021/11/30 11:29:24;;;;;;;7.70;3.52;;;;;;;2.78;84.58;98091.78;1696492;84;21007;-70
2021/11/30 11:32:05;;;;;;;8.13;3.17;;;;;;;2.80;79.64;98096.47;1685109;83;21078;-70
2021/11/30 11:34:35;;;;;;;6.55;3.92;;;;;;;2.76;77.33;98093.59;1687963;83;21146;-70
2021/11/30 11:37:04;;;;;;;6.85;3.72;;;;;;;2.71;80.87;98102.44;1706552;83;22192;-68
2021/11/30 11:39:33;;;;;;;7.78;3.22;;;;;;;2.70;79.12;98109.81;1704996;84;21109;-68
2021/11/30 11:42:07;;;;;;;8.50;4.30;;;;;;;2.73;80.72;98099.75;1707156;84;21097;-70
2021/11/30 11:44:37;;;;;;;7.67;3.37;;;;;;;2.75;82.43;98103.15;1709536;83;21022;-70
2021/11/30 11:47:07;;;;;;;10.23;3.80;;;;;;;2.72;76.74;98117.56;1705685;83;21012;-69
2021/11/30 11:49:38;;;;;;;8.83;5.00;;;;;;;2.74;79.44;98109.27;1707759;83;21155;-70
2021/11/30 11:52:05;;;;;;;9.48;3.37;;;;;;;2.73;80.11;98114.05;1712355;83;21693;-72
2021/11/30 11:54:35;;;;;;;10.10;4.33;;;;;;;2.70;78.21;98102.02;1711164;83;21036;-70
2021/11/30 11:57:08;;;;;;;5.43;3.40;;;;;;;2.67;81.74;98119.04;1698989;84;21026;-69
2021/11/30 11:59:43;;;;;;;8.08;3.70;;;;;;;2.63;79.03;98119.21;1700204;83;21101;-70
2021/11/30 12:02:29;;;;;;;8.05;3.50;;;;;;;2.58;77.49;98121.98;1697406;83;21950;-69
2021/11/30 12:05:01;;;;;;;6.95;3.37;;;;;;;2.55;82.41;98119.47;1650902;86;21066;-70
2021/11/30 12:07:58;;;;;;;5.83;3.42;;;;;;;2.50;78.69;98118.80;1708021;83;21039;-70
2021/11/30 12:10:28;;;;;;;9.33;4.08;;;;;;;2.50;78.69;98118.80;1697570;83;21417;-70
2021/11/30 12:13:03;;;;;;;6.37;3.47;;;;;;;2.49;83.59;98126.21;1707885;83;21140;-70
2021/11/30 12:15:36;;;;;;;8.05;4.17;;;;;;;2.45;78.81;98128.52;1710038;83;22068;-70
2021/11/30 12:18:33;;;;;;;10.60;4.08;;;;;;;2.45;80.13;98129.36;1708380;83;21048;-70
2021/11/30 12:21:20;;;;;;;8.58;3.70;;;;;;;2.44;80.96;98130.70;1712815;83;21621;-75
2021/11/30 12:23:53;;;;;;;7.35;3.92;;;;;;;2.41;79.59;98138.62;1712946;83;21043;-70
2021/11/30 12:26:37;;;;;;;5.70;3.52;;;;;;;2.41;80.82;98136.02;1713179;83;21080;-70
2021/11/30 12:29:20;;;;;;;5.40;2.98;;;;;;;2.59;85.97;98134.52;1710032;83;21150;-70
2021/11/30 12:31:49;;;;;;;5.10;2.70;;;;;;;3.01;78.97;98130.74;1709873;83;21147;-69
2021/11/30 12:34:37;;;;;;;6.30;3.20;;;;;;;3.14;72.97;98125.47;1691609;83;21140;-71
2021/11/30 12:37:10;;;;;;;3.27;2.33;;;;;;;3.06;77.49;98126.23;1692695;83;21601;-70
2021/11/30 12:40:12;;;;;;;3.55;2.00;;;;;;;2.91;73.22;98121.61;1690766;83;21091;-70
2021/11/30 12:42:48;;;;;;;5.87;2.40;;;;;;;2.84;74.67;98138.35;1677912;85;21470;-69
2021/11/30 12:45:38;;;;;;;4.00;2.10;;;;;;;2.75;78.74;98132.20;1681223;84;21087;-69
2021/11/30 12:48:35;;;;;;;3.37;2.08;;;;;;;2.82;74.86;98134.96;1661519;84;21015;-70
2021/11/30 12:51:34;;;;;;;5.00;2.15;;;;;;;2.76;72.18;98132.58;1696424;84;21598;-69
2021/11/30 12:54:02;;;;;;;4.97;2.42;;;;;;;2.68;77.03;98140.67;1678694;84;21388;-71
2021/11/30 12:56:53;;;;;;;3.55;2.30;;;;;;;2.59;77.26;98143.15;1663337;84;21125;-71
2021/11/30 12:59:45;;;;;;;3.17;2.10;;;;;;;2.54;73.93;98161.97;1705833;83;21514;-71
2021/11/30 13:02:31;;;;;;;6.30;2.35;;;;;;;2.42;72.86;98163.25;1677543;84;21078;-71
2021/11/30 13:05:18;;;;;;;3.52;1.92;;;;;;;2.37;75.87;98190.28;1694844;84;21071;-71
2021/11/30 13:07:54;;;;;;;3.67;1.50;;;;;;;2.27;71.31;98230.86;1697822;84;21579;-70
2021/11/30 13:10:42;;;;;;;2.30;1.55;;;;;;;2.27;71.31;98230.86;1687612;84;22029;-69
2021/11/30 13:13:29;;;;;;;3.25;1.77;;;;;;;2.22;72.98;98228.88;1690171;84;21028;-71
2021/11/30 13:16:01;;;;;;;4.53;1.50;;;;;;;2.14;70.99;98236.09;1689592;84;21602;-70
2021/11/30 13:18:33;;;;;;;2.83;1.45;;;;;;;2.14;70.99;98236.09;1694690;84;21060;-71
2021/11/30 13:21:06;;;;;;;13.72;2.15;;;;;;;2.02;71.23;98247.70;1687660;84;21587;-70
2021/11/30 13:23:33;;;;;;;3.98;1.55;;;;;;;2.02;71.23;98247.70;1691827;84;21206;-70
2021/11/30 13:25:59;;;;;;;1.98;1.40;;;;;;;2.04;74.11;98276.22;1676801;84;21027;-70